Time;durP1;ratioP1;P1;durP2;ratioP2;P2;SDS_P1;SDS_P2;PMS_P1;PMS_P2;Temp;Humidity;BMP_temperature;BMP_pressure;BME280_temperature;BME280_humidity;BME280_pressure;Samples;Min_cycle;Max_cycle;Signal;HPM_P1;HPM_P2
2022/04/21 00:01:03;;;;;;;55.63;29.80;;;4.00;99.90;;;;;;5034292;28;20483;-73
2022/04/21 00:03:28;;;;;;;60.58;31.88;;;4.00;99.90;;;;;;5034499;28;20036;-74
2022/04/21 00:05:54;;;;;;;54.72;30.88;;;3.90;99.90;;;;;;5034415;28;20030;-74
2022/04/21 00:08:20;;;;;;;57.50;32.17;;;3.90;99.90;;;;;;5034316;28;20483;-73
2022/04/21 00:10:46;;;;;;;59.15;33.45;;;3.90;99.90;;;;;;5034183;28;20029;-73
2022/04/21 00:13:12;;;;;;;58.28;33.97;;;3.90;99.90;;;;;;5033016;28;20026;-73
2022/04/21 00:15:38;;;;;;;59.80;32.28;;;3.90;99.90;;;;;;5034200;28;20081;-73
2022/04/21 00:18:04;;;;;;;56.25;31.02;;;3.90;99.90;;;;;;5034140;28;20025;-73
2022/04/21 00:20:30;;;;;;;58.08;32.08;;;3.90;99.90;;;;;;5034046;28;20048;-74
2022/04/21 00:25:39;;;;;;;58.80;33.63;;;3.90;99.90;;;;;;5034406;28;20564;-73
2022/04/21 00:28:06;;;;;;;58.13;32.05;;;3.90;99.90;;;;;;5033193;28;20101;-73
2022/04/21 00:30:32;;;;;;;54.65;32.00;;;3.80;99.90;;;;;;5033971;28;20390;-73
2022/04/21 00:32:57;;;;;;;60.90;32.58;;;3.80;99.90;;;;;;5033794;28;20026;-73
2022/04/21 00:35:23;;;;;;;62.83;33.38;;;3.80;99.90;;;;;;5033863;28;20025;-73
2022/04/21 00:37:54;;;;;;;62.80;33.78;;;3.80;99.90;;;;;;5033939;28;20086;-74
2022/04/21 00:40:22;;;;;;;64.05;36.83;;;3.80;99.90;;;;;;5033866;28;20029;-74
2022/04/21 00:42:48;;;;;;;57.30;35.10;;;3.80;99.90;;;;;;5033935;28;20033;-74
2022/04/21 00:45:15;;;;;;;65.55;35.97;;;3.80;99.90;;;;;;5033665;28;20029;-73
2022/04/21 00:47:43;;;;;;;70.07;37.47;;;3.90;99.90;;;;;;5033665;28;20034;-74
2022/04/21 00:50:11;;;;;;;79.32;42.13;;;3.80;99.90;;;;;;5033519;28;20017;-75
2022/04/21 00:52:38;;;;;;;62.72;37.22;;;3.90;99.90;;;;;;5033608;28;20025;-73
2022/04/21 00:55:05;;;;;;;70.53;39.25;;;3.80;99.90;;;;;;5033511;28;20041;-75
2022/04/21 00:57:31;;;;;;;62.88;36.20;;;3.90;99.90;;;;;;5033448;28;20049;-75
2022/04/21 00:59:58;;;;;;;60.97;35.75;;;3.90;99.90;;;;;;5033456;28;20033;-75
2022/04/21 01:05:09;;;;;;;70.38;41.47;;;4.00;99.90;;;;;;5033691;28;20442;-74
2022/04/21 01:07:35;;;;;;;65.68;37.47;;;4.00;99.90;;;;;;5033327;28;20503;-74
2022/04/21 01:10:00;;;;;;;68.93;36.78;;;4.00;99.90;;;;;;5032155;28;20033;-74
2022/04/21 01:12:27;;;;;;;64.82;38.33;;;4.00;99.90;;;;;;5032189;28;20108;-73
2022/04/21 01:14:52;;;;;;;70.18;38.10;;;4.00;99.90;;;;;;5033225;28;20069;-74
2022/04/21 01:17:30;;;;;;;62.80;34.88;;;4.00;99.90;;;;;;5033231;28;20514;-74
2022/04/21 01:19:56;;;;;;;69.47;35.70;;;4.00;99.90;;;;;;5033260;28;20044;-73
2022/04/21 01:22:22;;;;;;;64.18;36.38;;;4.00;99.90;;;;;;5032043;28;20025;-74
2022/04/21 01:24:47;;;;;;;68.30;35.85;;;4.00;99.90;;;;;;5033338;28;20069;-74
2022/04/21 01:27:13;;;;;;;65.63;35.08;;;4.00;99.90;;;;;;5031891;28;20033;-73
2022/04/21 01:29:38;;;;;;;61.38;34.55;;;3.90;99.90;;;;;;5032028;28;20418;-74
2022/04/21 01:32:04;;;;;;;59.90;33.97;;;4.00;99.90;;;;;;5033183;28;20025;-73
2022/04/21 01:34:30;;;;;;;62.85;34.90;;;4.00;99.90;;;;;;5033127;28;20028;-75
2022/04/21 01:42:23;;;;;;;58.28;35.35;;;3.90;99.90;;;;;;5037446;28;20090;-75
2022/04/21 01:44:49;;;;;;;60.92;33.00;;;3.90;99.90;;;;;;5037088;28;20422;-75
2022/04/21 01:47:14;;;;;;;63.13;32.88;;;3.90;99.90;;;;;;5037007;28;20125;-74
2022/04/21 01:49:40;;;;;;;58.58;33.13;;;3.90;99.90;;;;;;5036954;28;20414;-73
2022/04/21 01:52:05;;;;;;;70.75;33.92;;;3.90;99.90;;;;;;5035736;28;20025;-73
2022/04/21 01:54:31;;;;;;;59.40;33.42;;;4.00;99.90;;;;;;5035626;28;20025;-74
2022/04/21 01:56:56;;;;;;;57.63;33.70;;;3.90;99.90;;;;;;5036910;28;20032;-75
2022/04/21 01:59:22;;;;;;;61.38;33.40;;;4.00;99.90;;;;;;5036919;28;20028;-73
2022/04/21 02:01:47;;;;;;;61.75;33.45;;;3.90;99.90;;;;;;5036838;28;20052;-73
2022/04/21 02:04:13;;;;;;;58.63;33.20;;;4.00;99.90;;;;;;5035310;28;20025;-75
2022/04/21 02:06:39;;;;;;;64.43;32.10;;;4.00;99.90;;;;;;5036649;28;20029;-72
2022/04/21 02:09:04;;;;;;;57.22;32.67;;;3.90;99.90;;;;;;5036611;28;20619;-75
2022/04/21 02:11:30;;;;;;;62.70;33.97;;;3.90;99.90;;;;;;5036450;28;20029;-73
2022/04/21 02:13:55;;;;;;;60.22;33.67;;;3.90;99.90;;;;;;5035291;28;20033;-73
2022/04/21 02:16:21;;;;;;;61.08;34.63;;;3.90;99.90;;;;;;5036459;28;20445;-73
2022/04/21 02:18:47;;;;;;;61.38;34.47;;;3.90;99.90;;;;;;5035316;28;20042;-73
2022/04/21 02:21:13;;;;;;;59.40;32.03;;;3.80;99.90;;;;;;5035136;28;20029;-74
2022/04/21 02:23:38;;;;;;;57.50;33.00;;;3.90;99.90;;;;;;5036231;28;20017;-72
2022/04/21 02:26:04;;;;;;;62.55;35.53;;;3.80;99.90;;;;;;5036173;28;20029;-72
2022/04/21 02:28:29;;;;;;;60.05;33.63;;;3.90;99.90;;;;;;5036348;28;20017;-74
2022/04/21 02:30:55;;;;;;;62.20;32.75;;;3.90;99.90;;;;;;5036293;28;20021;-72
2022/04/21 02:33:20;;;;;;;60.85;34.30;;;3.90;99.90;;;;;;5036070;28;20479;-72
2022/04/21 02:35:47;;;;;;;59.38;33.55;;;3.90;99.90;;;;;;5034791;28;20476;-74
2022/04/21 02:38:12;;;;;;;63.30;34.50;;;3.80;99.90;;;;;;5034897;28;20430;-74
2022/04/21 02:40:38;;;;;;;67.40;36.55;;;3.90;99.90;;;;;;5035966;28;20029;-74
2022/04/21 02:43:04;;;;;;;62.15;34.45;;;3.90;99.90;;;;;;5035992;28;20022;-74
2022/04/21 02:45:29;;;;;;;59.83;34.35;;;3.80;99.90;;;;;;5035907;28;20025;-72
2022/04/21 02:47:55;;;;;;;58.90;33.78;;;3.80;99.90;;;;;;5035748;28;20034;-75
2022/04/21 02:50:21;;;;;;;69.38;35.70;;;3.80;99.90;;;;;;5033737;28;20053;-74
2022/04/21 02:52:47;;;;;;;64.68;35.55;;;3.80;99.90;;;;;;5035628;28;20509;-73
2022/04/21 02:57:58;;;;;;;63.05;34.03;;;3.80;99.90;;;;;;5036292;28;20040;-74
2022/04/21 03:00:24;;;;;;;66.10;35.53;;;3.80;99.90;;;;;;5035585;28;20475;-72
2022/04/21 03:02:50;;;;;;;61.03;34.45;;;3.80;99.90;;;;;;5034321;28;20117;-74
2022/04/21 03:05:16;;;;;;;68.45;34.70;;;3.80;99.90;;;;;;5034209;28;20053;-74
2022/04/21 03:07:42;;;;;;;76.20;41.05;;;3.80;99.90;;;;;;5046275;28;20033;-73
2022/04/21 03:10:08;;;;;;;73.57;38.85;;;3.80;99.90;;;;;;5053989;28;20044;-73
2022/04/21 03:12:34;;;;;;;74.20;41.20;;;3.80;99.90;;;;;;5055519;28;20103;-73
2022/04/21 03:15:00;;;;;;;70.10;41.22;;;3.80;99.90;;;;;;5053972;28;20168;-73
2022/04/21 03:17:27;;;;;;;64.75;36.45;;;3.70;99.90;;;;;;5055285;28;20486;-73
2022/04/21 03:19:52;;;;;;;68.72;37.05;;;3.70;99.90;;;;;;5055098;28;20027;-73
2022/04/21 03:25:05;;;;;;;73.35;37.63;;;3.70;99.90;;;;;;5055161;28;20060;-74
2022/04/21 03:27:31;;;;;;;72.00;37.17;;;3.60;99.90;;;;;;5053722;28;20032;-74
2022/04/21 03:30:01;;;;;;;75.47;40.88;;;3.60;99.90;;;;;;5055109;28;20051;-74
2022/04/21 03:32:26;;;;;;;67.15;38.25;;;3.60;99.90;;;;;;5054991;28;20036;-74
2022/04/21 03:34:53;;;;;;;74.05;38.92;;;3.60;99.90;;;;;;5053703;28;20021;-74
2022/04/21 03:37:20;;;;;;;74.97;40.05;;;3.60;99.90;;;;;;5053574;28;20384;-74
2022/04/21 03:39:46;;;;;;;77.50;44.70;;;3.60;99.90;;;;;;5054719;28;20025;-73
2022/04/21 03:42:20;;;;;;;88.93;45.80;;;3.60;99.90;;;;;;5054693;28;20111;-74
2022/04/21 03:44:46;;;;;;;76.85;40.97;;;3.60;99.90;;;;;;5054613;28;20025;-73
2022/04/21 03:47:12;;;;;;;71.32;39.25;;;3.70;99.90;;;;;;5053415;28;20118;-73
2022/04/21 03:49:37;;;;;;;71.57;39.58;;;3.70;99.90;;;;;;5053303;28;20490;-74
2022/04/21 03:52:03;;;;;;;78.53;42.88;;;3.70;99.90;;;;;;5054503;28;20475;-74
2022/04/21 03:54:29;;;;;;;71.35;41.00;;;3.80;99.90;;;;;;5054535;28;20024;-74
2022/04/21 03:56:55;;;;;;;72.28;40.17;;;3.80;99.90;;;;;;5053173;28;20029;-74
2022/04/21 03:59:22;;;;;;;77.57;41.92;;;3.80;99.90;;;;;;5054448;28;20021;-73
2022/04/21 04:01:47;;;;;;;68.43;36.85;;;3.80;99.90;;;;;;5054209;28;20067;-73
2022/04/21 04:04:13;;;;;;;67.53;36.78;;;3.90;99.90;;;;;;5054207;28;20025;-73
2022/04/21 04:12:11;;;;;;;71.07;39.33;;;3.90;99.90;;;;;;5054251;28;20090;-74
2022/04/21 04:14:38;;;;;;;71.70;37.38;;;3.90;99.90;;;;;;5052649;28;20021;-73
2022/04/21 04:17:05;;;;;;;66.88;35.90;;;3.90;99.90;;;;;;5054187;28;20033;-74
2022/04/21 04:19:31;;;;;;;65.95;36.00;;;3.90;99.90;;;;;;5054282;28;20021;-73
2022/04/21 04:21:57;;;;;;;71.68;37.67;;;3.90;99.90;;;;;;5054025;28;20032;-75
2022/04/21 04:24:23;;;;;;;72.55;36.45;;;3.90;99.90;;;;;;5054092;28;20027;-73
2022/04/21 04:26:48;;;;;;;70.75;38.03;;;3.90;99.90;;;;;;5054031;28;20083;-75
2022/04/21 04:29:14;;;;;;;71.82;37.40;;;3.90;99.90;;;;;;5053872;28;20024;-74
2022/04/21 04:31:40;;;;;;;73.45;38.10;;;3.90;99.90;;;;;;5052564;28;20085;-74
2022/04/21 04:34:08;;;;;;;70.18;35.47;;;3.90;99.90;;;;;;5053991;28;20017;-74
2022/04/21 04:36:34;;;;;;;67.88;38.58;;;3.90;99.90;;;;;;5053753;28;20024;-74
2022/04/21 04:38:59;;;;;;;69.75;39.22;;;3.90;99.90;;;;;;5053763;28;20119;-73
2022/04/21 04:44:09;;;;;;;66.43;34.35;;;3.80;99.90;;;;;;5053679;28;20032;-72
2022/04/21 04:46:35;;;;;;;71.57;37.83;;;3.80;99.90;;;;;;5053651;28;20041;-74
2022/04/21 04:49:05;;;;;;;67.88;39.60;;;3.90;99.90;;;;;;5053717;28;20501;-73
2022/04/21 04:51:31;;;;;;;69.13;37.78;;;3.90;99.90;;;;;;5052264;28;20032;-75
2022/04/21 04:53:57;;;;;;;67.20;37.45;;;3.90;99.90;;;;;;5052176;28;20043;-74
2022/04/21 04:56:24;;;;;;;72.65;38.08;;;3.90;99.90;;;;;;5053563;28;20402;-74
2022/04/21 04:58:51;;;;;;;74.32;38.13;;;4.00;99.90;;;;;;5053417;28;20390;-73
2022/04/21 05:01:26;;;;;;;66.88;36.58;;;4.00;99.90;;;;;;5053446;28;20028;-73
2022/04/21 05:03:54;;;;;;;67.93;37.60;;;4.10;99.90;;;;;;5053258;28;20029;-73
2022/04/21 05:06:19;;;;;;;71.78;39.15;;;4.10;99.90;;;;;;5053240;28;20076;-73
2022/04/21 05:08:45;;;;;;;75.57;39.70;;;4.20;99.90;;;;;;5053260;28;20052;-73
2022/04/21 05:11:11;;;;;;;69.68;38.38;;;4.20;99.90;;;;;;5053064;28;20068;-73
2022/04/21 05:13:37;;;;;;;71.93;41.00;;;4.30;99.90;;;;;;5051757;28;20025;-73
2022/04/21 05:16:03;;;;;;;74.78;40.28;;;4.30;99.90;;;;;;5052996;28;20048;-73
2022/04/21 05:18:29;;;;;;;71.03;39.95;;;4.40;99.90;;;;;;5051679;28;20389;-74
2022/04/21 05:20:55;;;;;;;73.38;39.22;;;4.40;99.90;;;;;;5052842;28;20028;-74
2022/04/21 05:23:21;;;;;;;72.65;39.90;;;4.40;99.90;;;;;;5053116;28;20028;-74
2022/04/21 05:25:46;;;;;;;78.63;42.72;;;4.50;99.90;;;;;;5051639;28;20072;-74
2022/04/21 05:28:13;;;;;;;74.28;40.47;;;4.60;99.90;;;;;;5053041;28;20051;-74
2022/04/21 05:33:25;;;;;;;74.95;43.58;;;4.70;99.90;;;;;;5046373;28;20041;-73
2022/04/21 05:35:51;;;;;;;71.30;40.95;;;4.80;99.90;;;;;;5040519;28;20017;-73
2022/04/21 05:38:20;;;;;;;65.03;37.03;;;4.90;99.90;;;;;;5042024;28;20076;-74
2022/04/21 05:40:45;;;;;;;62.50;38.20;;;4.90;99.90;;;;;;5051410;28;20025;-74
2022/04/21 05:43:14;;;;;;;63.15;35.08;;;5.00;99.90;;;;;;5053215;28;20024;-74
2022/04/21 05:45:40;;;;;;;65.00;36.58;;;5.10;99.90;;;;;;5051584;28;20100;-73
2022/04/21 05:48:06;;;;;;;65.63;37.22;;;5.10;99.90;;;;;;5051781;28;20116;-74
2022/04/21 05:50:32;;;;;;;48.53;27.95;;;5.10;99.90;;;;;;5045354;28;20029;-75
2022/04/21 05:53:02;;;;;;;47.80;28.35;;;5.20;99.90;;;;;;5032016;28;20044;-75
2022/04/21 05:55:31;;;;;;;40.30;23.02;;;5.20;99.90;;;;;;5031875;28;20520;-74
2022/04/21 05:57:56;;;;;;;44.10;24.30;;;5.30;99.90;;;;;;5031993;28;20044;-75
2022/04/21 06:00:22;;;;;;;41.92;24.70;;;5.20;99.90;;;;;;5030803;28;20014;-74
2022/04/21 06:02:48;;;;;;;33.13;20.45;;;5.30;99.90;;;;;;5047203;28;20030;-72
2022/04/21 06:05:14;;;;;;;38.38;23.08;;;5.30;99.90;;;;;;5031062;28;20044;-72
2022/04/21 06:07:39;;;;;;;32.13;20.50;;;5.40;99.90;;;;;;5031715;28;20060;-72
2022/04/21 06:10:06;;;;;;;34.17;18.98;;;5.50;99.90;;;;;;5031110;28;20017;-73
2022/04/21 06:12:33;;;;;;;29.02;19.25;;;5.60;99.90;;;;;;5051538;28;20040;-73
2022/04/21 06:14:58;;;;;;;36.45;21.27;;;5.60;99.90;;;;;;5050339;28;20041;-73
2022/04/21 06:17:25;;;;;;;40.72;24.00;;;5.80;99.90;;;;;;5051344;28;20116;-74
2022/04/21 06:19:50;;;;;;;37.05;22.13;;;5.80;99.90;;;;;;5051386;28;20025;-74
2022/04/21 06:22:16;;;;;;;43.08;24.27;;;5.90;99.90;;;;;;5051319;28;20025;-73
2022/04/21 06:24:42;;;;;;;44.70;27.80;;;6.00;99.90;;;;;;5051748;28;20029;-73
2022/04/21 06:27:07;;;;;;;40.45;24.90;;;6.10;99.90;;;;;;5053628;28;20040;-74
2022/04/21 06:29:33;;;;;;;44.08;26.55;;;6.10;99.90;;;;;;5054792;28;20473;-73
2022/04/21 06:31:58;;;;;;;45.63;26.48;;;6.20;99.90;;;;;;5056125;28;20029;-73
2022/04/21 06:34:24;;;;;;;39.72;24.70;;;6.30;99.90;;;;;;5055484;28;20020;-73
2022/04/21 06:36:49;;;;;;;34.17;22.58;;;6.30;99.90;;;;;;5054553;28;20032;-73
2022/04/21 06:39:15;;;;;;;40.10;22.88;;;6.30;99.90;;;;;;5051813;28;20029;-73
2022/04/21 06:41:40;;;;;;;41.50;24.80;;;6.40;99.90;;;;;;5039468;28;20033;-73
2022/04/21 06:49:34;;;;;;;36.90;22.50;;;6.50;99.90;;;;;;5035577;28;20041;-73
2022/04/21 06:52:00;;;;;;;36.45;22.00;;;6.50;99.90;;;;;;5035419;28;20384;-72
2022/04/21 06:54:25;;;;;;;33.78;20.73;;;6.60;99.90;;;;;;5034398;28;20025;-73
2022/04/21 06:56:51;;;;;;;35.20;21.27;;;6.70;99.90;;;;;;5050725;28;20026;-72
2022/04/21 06:59:17;;;;;;;34.53;20.50;;;6.80;99.90;;;;;;5078535;28;20021;-72
2022/04/21 07:01:46;;;;;;;39.58;21.75;;;6.80;99.90;;;;;;5055318;28;20163;-73
2022/04/21 07:04:12;;;;;;;29.50;19.80;;;6.90;99.90;;;;;;5055293;28;20017;-73
2022/04/21 07:06:38;;;;;;;31.85;19.13;;;7.00;99.90;;;;;;5054727;28;20028;-72
2022/04/21 07:09:03;;;;;;;31.08;19.40;;;6.90;99.90;;;;;;5053928;28;20028;-72
2022/04/21 07:11:30;;;;;;;37.05;20.90;;;7.00;99.90;;;;;;5055104;28;20028;-73
2022/04/21 07:13:56;;;;;;;30.33;18.98;;;7.10;99.90;;;;;;5053865;28;20029;-73
2022/04/21 07:16:22;;;;;;;30.17;17.20;;;7.10;99.90;;;;;;5053641;28;20045;-73
2022/04/21 07:18:47;;;;;;;27.45;16.73;;;7.20;99.90;;;;;;5053652;28;20445;-73
2022/04/21 07:21:13;;;;;;;32.47;18.10;;;7.30;99.90;;;;;;5054828;28;20033;-73
2022/04/21 07:23:39;;;;;;;29.23;18.90;;;7.30;99.90;;;;;;5054794;28;20017;-73
2022/04/21 07:26:06;;;;;;;24.20;16.05;;;7.40;99.90;;;;;;5054714;28;20018;-73
2022/04/21 07:28:32;;;;;;;25.77;17.33;;;7.50;99.90;;;;;;5051396;28;20103;-74
2022/04/21 07:30:58;;;;;;;25.60;16.98;;;7.50;99.90;;;;;;5043102;28;20029;-73
2022/04/21 07:33:23;;;;;;;29.52;18.30;;;7.60;99.90;;;;;;5044731;28;20516;-74
2022/04/21 07:35:49;;;;;;;28.65;17.05;;;7.70;99.90;;;;;;5044305;28;20013;-72
2022/04/21 07:38:14;;;;;;;27.98;17.42;;;7.80;99.90;;;;;;5043983;28;20472;-72
2022/04/21 07:40:41;;;;;;;26.15;16.90;;;7.80;99.90;;;;;;5040141;28;20068;-72
2022/04/21 07:43:09;;;;;;;30.23;18.50;;;8.00;99.90;;;;;;5035085;28;20104;-73
2022/04/21 07:45:40;;;;;;;58.53;28.10;;;8.00;95.80;;;;;;5033602;28;20024;-73
2022/04/21 07:48:06;;;;;;;29.13;15.77;;;8.10;95.50;;;;;;5033563;28;20037;-72
2022/04/21 07:50:31;;;;;;;22.48;13.57;;;8.10;91.60;;;;;;5033464;28;20360;-73
2022/04/21 07:53:15;;;;;;;32.53;19.98;;;8.10;90.80;;;;;;5033314;28;20029;-74
2022/04/21 07:55:43;;;;;;;22.45;13.88;;;8.00;88.80;;;;;;5051271;28;20094;-74
2022/04/21 07:58:08;;;;;;;38.42;23.27;;;8.10;90.00;;;;;;5050747;28;20036;-74
2022/04/21 08:00:36;;;;;;;37.50;20.35;;;8.10;89.50;;;;;;5048249;28;20017;-74
2022/04/21 08:03:05;;;;;;;23.77;15.15;;;8.10;89.80;;;;;;5050450;28;20018;-76
2022/04/21 08:05:31;;;;;;;16.00;10.82;;;8.20;89.20;;;;;;5035662;28;20116;-75
2022/04/21 08:07:58;;;;;;;19.60;11.63;;;8.30;88.20;;;;;;5033702;28;20501;-75
2022/04/21 08:10:25;;;;;;;29.23;17.65;;;8.30;85.10;;;;;;5034047;28;20021;-74
2022/04/21 08:12:52;;;;;;;35.88;20.08;;;8.40;84.50;;;;;;5033963;28;20467;-75
2022/04/21 08:15:29;;;;;;;26.30;16.58;;;8.40;83.70;;;;;;5032154;28;20053;-75
2022/04/21 08:17:57;;;;;;;18.08;12.07;;;8.50;86.10;;;;;;5031627;28;20390;-74
2022/04/21 08:20:24;;;;;;;14.25;10.63;;;8.50;83.60;;;;;;5041449;28;20083;-73
2022/04/21 08:22:50;;;;;;;16.65;11.70;;;8.60;81.20;;;;;;5040813;28;20079;-74
2022/04/21 08:33:36;;;;;;;18.30;12.45;;;8.90;84.90;;;;;;5044610;28;20522;-73
2022/04/21 08:36:03;;;;;;;20.98;13.85;;;9.10;81.40;;;;;;5051041;28;20029;-73
2022/04/21 08:38:30;;;;;;;22.17;12.80;;;9.10;80.80;;;;;;5048915;28;20029;-73
2022/04/21 08:40:58;;;;;;;21.35;14.40;;;9.00;77.70;;;;;;5053141;28;20021;-73
2022/04/21 08:43:27;;;;;;;18.25;13.05;;;9.10;79.00;;;;;;5053440;28;20013;-73
2022/04/21 08:45:53;;;;;;;22.42;13.98;;;9.20;78.30;;;;;;5053233;28;20036;-75
2022/04/21 08:48:23;;;;;;;21.67;14.63;;;9.50;79.70;;;;;;5051363;28;20029;-73
2022/04/21 08:50:49;;;;;;;28.95;16.52;;;9.50;74.80;;;;;;5053239;28;20501;-75
2022/04/21 08:53:19;;;;;;;26.75;17.88;;;9.60;73.90;;;;;;5053311;28;20025;-75
2022/04/21 08:55:47;;;;;;;22.30;13.15;;;9.80;73.50;;;;;;5053024;28;20029;-75
2022/04/21 08:58:13;;;;;;;22.45;15.15;;;9.90;73.40;;;;;;5053096;28;20683;-74
2022/04/21 09:00:40;;;;;;;23.90;16.83;;;10.10;73.00;;;;;;5051851;28;20029;-73
2022/04/21 09:03:07;;;;;;;22.92;15.18;;;10.10;71.30;;;;;;5053059;28;20380;-73
2022/04/21 09:05:33;;;;;;;23.17;15.07;;;10.10;70.70;;;;;;5052791;28;20490;-73
2022/04/21 09:08:01;;;;;;;17.98;13.45;;;10.30;72.70;;;;;;5052694;28;20110;-75
2022/04/21 09:10:34;;;;;;;22.27;14.63;;;10.30;71.60;;;;;;5052931;28;20723;-75
2022/04/21 09:13:02;;;;;;;22.90;15.73;;;10.10;69.50;;;;;;5049886;28;20087;-73
2022/04/21 09:15:27;;;;;;;22.30;14.65;;;10.00;69.80;;;;;;5044678;28;20111;-73
2022/04/21 09:17:56;;;;;;;22.90;15.88;;;10.20;70.50;;;;;;5050527;28;20053;-73
2022/04/21 09:20:24;;;;;;;19.80;14.63;;;10.30;70.10;;;;;;5051528;28;20033;-73
2022/04/21 09:22:58;;;;;;;20.55;13.63;;;10.40;69.70;;;;;;5051549;28;20021;-73
2022/04/21 09:25:26;;;;;;;18.65;13.30;;;10.10;68.50;;;;;;5052959;28;20108;-73
2022/04/21 09:27:52;;;;;;;19.95;12.65;;;9.90;68.70;;;;;;5048188;28;20029;-73
2022/04/21 09:30:19;;;;;;;17.58;12.32;;;9.80;69.80;;;;;;5042778;28;20025;-73
2022/04/21 09:32:54;;;;;;;17.50;11.93;;;9.70;71.20;;;;;;5048414;28;20029;-74
2022/04/21 09:35:21;;;;;;;17.88;12.23;;;9.60;71.90;;;;;;5052811;28;20025;-73
2022/04/21 09:37:53;;;;;;;19.10;12.57;;;9.40;73.10;;;;;;5052577;28;20045;-74
2022/04/21 09:40:21;;;;;;;17.23;10.90;;;9.40;71.90;;;;;;5052676;28;20021;-73
2022/04/21 09:43:27;;;;;;;18.42;11.73;;;9.40;71.60;;;;;;5051390;28;20493;-74
2022/04/21 09:46:08;;;;;;;17.65;11.35;;;9.50;72.00;;;;;;5049853;28;20040;-73
2022/04/21 09:48:34;;;;;;;16.20;11.60;;;9.50;71.30;;;;;;5052709;28;20056;-73
2022/04/21 09:51:22;;;;;;;18.70;11.98;;;9.60;72.00;;;;;;5052578;28;20025;-73
2022/04/21 09:54:02;;;;;;;15.57;10.32;;;9.50;70.50;;;;;;5051263;28;20359;-73
2022/04/21 09:56:40;;;;;;;16.83;10.57;;;9.60;70.30;;;;;;5051007;28;20056;-74
2022/04/21 09:59:08;;;;;;;13.93;10.35;;;9.50;69.20;;;;;;5051416;28;20017;-73
2022/04/21 10:01:36;;;;;;;13.43;9.65;;;9.60;69.70;;;;;;5055036;28;20024;-73
2022/04/21 10:04:09;;;;;;;14.32;10.75;;;9.70;68.80;;;;;;5055079;28;20032;-73
2022/04/21 10:06:38;;;;;;;;;;;9.80;69.00;;;;;;5055111;28;20516;-73
2022/04/21 10:09:04;;;;;;;14.00;9.63;;;9.80;68.30;;;;;;5053057;28;19951;-73
2022/04/21 10:11:31;;;;;;;15.35;10.98;;;9.80;69.10;;;;;;5056115;28;20025;-72
2022/04/21 10:13:57;;;;;;;13.38;10.43;;;9.80;69.80;;;;;;5056229;28;20017;-74
2022/04/21 10:16:26;;;;;;;13.70;9.45;;;9.70;68.80;;;;;;5056174;28;20056;-72
2022/04/21 10:18:54;;;;;;;17.48;12.18;;;9.70;68.40;;;;;;5056043;28;20040;-73
2022/04/21 10:21:26;;;;;;;12.98;8.90;;;9.80;68.70;;;;;;5054729;28;20472;-73
2022/04/21 10:23:52;;;;;;;12.15;8.68;;;9.80;67.70;;;;;;5056034;28;20068;-73
2022/04/21 10:26:43;;;;;;;10.45;8.75;;;9.80;67.00;;;;;;5054553;28;20139;-73
2022/04/21 10:29:17;;;;;;;8.15;6.53;;;9.80;66.70;;;;;;5054250;28;20025;-73
2022/04/21 10:31:49;;;;;;;7.97;7.03;;;9.80;65.10;;;;;;5054673;28;20410;-78
2022/04/21 10:34:40;;;;;;;9.60;6.40;;;9.70;65.80;;;;;;5054829;28;20025;-77
2022/04/21 10:37:10;;;;;;;9.32;6.43;;;9.70;63.90;;;;;;5056288;28;20021;-76
2022/04/21 10:39:36;;;;;;;9.88;6.47;;;9.80;65.40;;;;;;5056346;28;20474;-73
2022/04/21 10:42:16;;;;;;;9.73;7.03;;;9.80;64.90;;;;;;5056077;28;20086;-76
2022/04/21 10:44:46;;;;;;;8.80;7.50;;;9.80;66.90;;;;;;5056098;28;20500;-77
2022/04/21 10:47:35;;;;;;;9.73;7.05;;;9.80;66.90;;;;;;5055883;28;20037;-77
2022/04/21 10:50:02;;;;;;;10.38;7.40;;;9.80;67.30;;;;;;5054663;28;20052;-76
2022/04/21 10:57:48;;;;;;;11.00;7.55;;;9.80;66.30;;;;;;5056168;28;20037;-78
2022/04/21 11:00:34;;;;;;;12.63;6.82;;;9.70;67.60;;;;;;5054346;28;20024;-76
2022/04/21 11:03:10;;;;;;;13.05;7.35;;;9.70;69.00;;;;;;5050103;28;20056;-75
2022/04/21 11:05:40;;;;;;;13.15;8.88;;;9.60;68.90;;;;;;5050254;28;20033;-76
2022/04/21 11:08:14;;;;;;;24.52;15.05;;;9.50;70.40;;;;;;5047513;28;20037;-76
2022/04/21 11:10:43;;;;;;;14.98;8.70;;;9.50;70.70;;;;;;5054742;28;20437;-76
2022/04/21 11:13:16;;;;;;;14.82;8.77;;;9.50;71.90;;;;;;5055071;28;20027;-76
2022/04/21 11:15:45;;;;;;;9.88;7.80;;;9.40;73.40;;;;;;5048172;28;20140;-76
2022/04/21 11:18:12;;;;;;;30.33;16.60;;;9.40;73.50;;;;;;5033665;28;20057;-76
2022/04/21 11:20:43;;;;;;;20.45;13.57;;;9.40;75.20;;;;;;5037839;28;20025;-76
2022/04/21 11:23:44;;;;;;;14.07;9.90;;;9.50;74.30;;;;;;5050502;28;20025;-76
2022/04/21 11:26:09;;;;;;;11.68;9.52;;;9.40;74.10;;;;;;5011679;28;20041;-76
2022/04/21 11:28:35;;;;;;;12.98;9.23;;;9.40;73.90;;;;;;5039430;28;20037;-76
2022/04/21 11:31:04;;;;;;;13.40;9.68;;;9.50;74.20;;;;;;5032629;28;20100;-76
2022/04/21 11:33:33;;;;;;;14.80;10.45;;;9.60;73.50;;;;;;5033087;28;20109;-76
2022/04/21 11:36:03;;;;;;;13.90;10.10;;;9.60;73.60;;;;;;5041481;28;20026;-75
2022/04/21 11:38:28;;;;;;;16.33;10.45;;;9.60;74.30;;;;;;5041492;28;20029;-74
2022/04/21 11:40:56;;;;;;;12.57;9.48;;;9.60;74.00;;;;;;5033170;28;20525;-75
2022/04/21 11:43:21;;;;;;;13.38;9.52;;;9.90;73.40;;;;;;5033334;28;20033;-78
2022/04/21 11:46:04;;;;;;;11.82;9.75;;;9.80;71.30;;;;;;5034445;28;20041;-76
2022/04/21 11:48:37;;;;;;;12.48;9.07;;;9.90;70.60;;;;;;5034474;28;20033;-75
2022/04/21 11:51:03;;;;;;;11.40;9.15;;;10.00;68.50;;;;;;5032933;28;20018;-75
2022/04/21 11:53:34;;;;;;;13.18;9.05;;;10.20;70.00;;;;;;5033224;28;20394;-75
2022/04/21 11:55:59;;;;;;;10.73;7.53;;;10.30;67.00;;;;;;5034296;28;20497;-76
2022/04/21 11:58:32;;;;;;;11.75;8.15;;;10.40;64.30;;;;;;5034277;28;20037;-76
2022/04/21 12:06:43;;;;;;;12.05;7.95;;;10.50;63.60;;;;;;5034261;28;20095;-75
2022/04/21 12:09:17;;;;;;;14.38;8.75;;;10.50;64.20;;;;;;5032607;28;20030;-76
2022/04/21 12:11:47;;;;;;;9.93;8.38;;;10.30;64.60;;;;;;5032838;28;20035;-75
2022/04/21 12:14:15;;;;;;;9.77;8.32;;;10.30;65.00;;;;;;5032462;28;20033;-77
2022/04/21 12:16:45;;;;;;;13.00;9.38;;;10.40;65.70;;;;;;5033978;28;20505;-75
2022/04/21 12:19:32;;;;;;;12.80;9.43;;;10.30;65.20;;;;;;5032574;28;20036;-77
2022/04/21 12:22:06;;;;;;;11.57;9.38;;;10.30;65.40;;;;;;5032519;28;20029;-76
2022/04/21 12:24:36;;;;;;;11.63;8.88;;;10.40;65.80;;;;;;5032774;28;20025;-76
2022/04/21 12:27:22;;;;;;;12.40;9.23;;;10.30;66.20;;;;;;5033494;28;20040;-75
2022/04/21 12:29:57;;;;;;;11.98;8.80;;;10.40;66.60;;;;;;5033371;28;20659;-77
2022/04/21 12:32:25;;;;;;;13.40;10.20;;;10.30;67.50;;;;;;5033856;28;20021;-76
2022/04/21 12:34:54;;;;;;;12.85;9.80;;;10.40;66.80;;;;;;5033607;28;20022;-76
2022/04/21 12:37:50;;;;;;;15.63;10.80;;;10.40;66.20;;;;;;5033569;28;20032;-76
2022/04/21 12:40:16;;;;;;;15.68;10.63;;;10.50;66.90;;;;;;5030198;28;20041;-76
2022/04/21 12:42:45;;;;;;;14.52;10.73;;;10.40;66.90;;;;;;5031695;28;20022;-76
2022/04/21 12:45:11;;;;;;;16.10;10.98;;;10.40;67.20;;;;;;5031869;28;20101;-76
2022/04/21 12:47:44;;;;;;;14.43;10.27;;;10.20;67.50;;;;;;5033268;28;20037;-76
2022/04/21 12:50:18;;;;;;;14.80;10.93;;;10.20;67.20;;;;;;5031690;28;20018;-76
2022/04/21 12:52:57;;;;;;;12.73;9.50;;;10.30;67.40;;;;;;5033403;28;20025;-76
2022/04/21 12:55:25;;;;;;;13.68;10.63;;;10.50;65.30;;;;;;5033364;28;20053;-76
2022/04/21 12:58:09;;;;;;;14.88;11.35;;;10.50;66.00;;;;;;5032652;28;20031;-76
2022/04/21 13:00:38;;;;;;;13.75;10.68;;;10.60;67.00;;;;;;5031663;28;20079;-76
2022/04/21 13:03:04;;;;;;;14.15;11.15;;;10.60;66.30;;;;;;5033119;28;20029;-76
2022/04/21 13:05:31;;;;;;;11.25;8.95;;;10.60;66.00;;;;;;5033018;28;20379;-76
2022/04/21 13:07:57;;;;;;;11.85;10.18;;;10.60;64.80;;;;;;5031602;28;20060;-76
2022/04/21 13:10:23;;;;;;;16.30;12.38;;;10.60;66.80;;;;;;5031371;28;20055;-76
2022/04/21 13:12:49;;;;;;;12.85;9.55;;;10.50;66.70;;;;;;5032480;28;20017;-76
2022/04/21 13:15:15;;;;;;;11.40;8.55;;;10.60;65.10;;;;;;5031624;28;20081;-76
2022/04/21 13:17:40;;;;;;;11.85;8.38;;;10.60;63.30;;;;;;5032935;28;20053;-75
2022/04/21 13:20:07;;;;;;;11.52;9.15;;;10.60;63.40;;;;;;5032942;28;20024;-76
2022/04/21 13:22:33;;;;;;;11.93;8.70;;;10.60;64.50;;;;;;5031388;28;20107;-75
2022/04/21 13:24:58;;;;;;;13.98;9.73;;;10.70;64.50;;;;;;5032936;28;20053;-76
2022/04/21 13:27:26;;;;;;;11.68;9.40;;;10.70;65.60;;;;;;5032413;28;20033;-76
2022/04/21 13:29:56;;;;;;;10.63;8.57;;;10.70;63.20;;;;;;5032693;28;20398;-77
2022/04/21 13:35:07;;;;;;;9.70;7.65;;;10.80;63.90;;;;;;5048183;28;20039;-76
2022/04/21 13:37:32;;;;;;;21.23;10.85;;;10.60;61.60;;;;;;5056878;28;20036;-76